Time;durP1;ratioP1;P1;durP2;ratioP2;P2;SDS_P1;SDS_P2;PMS_P1;PMS_P2;Temp;Humidity;BMP_temperature;BMP_pressure;BME280_temperature;BME280_humidity;BME280_pressure;Samples;Min_cycle;Max_cycle;Signal;HPM_P1;HPM_P2
2022/02/22 00:02:09;;;;;;;10.60;2.20;;;12.60;99.90;;;;;;5080916;28;20275;-67
2022/02/22 00:04:38;;;;;;;7.97;2.10;;;12.60;99.90;;;;;;5091757;28;20416;-67
2022/02/22 00:07:05;;;;;;;10.47;2.83;;;12.60;99.90;;;;;;5076535;28;20214;-67
2022/02/22 00:09:33;;;;;;;7.50;2.40;;;12.60;99.90;;;;;;5079820;28;20190;-67
2022/02/22 00:11:59;;;;;;;19.77;3.10;;;12.70;99.90;;;;;;5074094;28;20296;-67
2022/02/22 00:14:26;;;;;;;13.50;2.43;;;12.70;99.90;;;;;;5069281;28;20199;-67
2022/02/22 00:16:55;;;;;;;7.70;2.33;;;12.70;99.90;;;;;;5070313;28;20194;-67
2022/02/22 00:19:26;;;;;;;8.70;2.83;;;12.70;99.90;;;;;;5084935;28;20210;-68
2022/02/22 00:22:54;;;;;;;8.43;2.57;;;12.60;99.90;;;;;;5060133;28;20218;-67
2022/02/22 00:25:20;;;;;;;15.17;2.93;;;12.60;99.90;;;;;;5068144;28;20214;-69
2022/02/22 00:27:46;;;;;;;7.77;2.60;;;12.60;99.90;;;;;;5078139;28;20199;-68
2022/02/22 00:34:10;;;;;;;11.20;2.17;;;12.60;99.90;;;;;;5075525;28;20899;-67
2022/02/22 00:36:37;;;;;;;15.10;2.67;;;12.60;99.90;;;;;;5074524;28;20701;-66
2022/02/22 00:39:05;;;;;;;11.07;2.23;;;12.50;99.90;;;;;;5079134;28;20197;-66
2022/02/22 00:41:32;;;;;;;10.10;2.33;;;12.50;99.90;;;;;;5080969;28;20658;-68
2022/02/22 00:51:21;;;;;;;12.63;2.80;;;12.50;99.90;;;;;;5071840;28;20710;-65
2022/02/22 00:53:49;;;;;;;8.43;2.20;;;12.50;99.90;;;;;;5073165;28;20182;-67
2022/02/22 00:56:15;;;;;;;7.87;2.30;;;12.40;99.90;;;;;;5071319;28;20217;-68
2022/02/22 00:58:42;;;;;;;12.97;2.33;;;12.40;99.90;;;;;;5078243;28;20237;-67
2022/02/22 01:01:11;;;;;;;10.57;2.57;;;12.40;99.90;;;;;;5072777;28;20198;-67
2022/02/22 01:03:37;;;;;;;11.37;2.10;;;12.40;99.90;;;;;;5073438;28;20191;-67
2022/02/22 01:06:04;;;;;;;10.77;2.20;;;12.40;99.90;;;;;;5086259;28;20220;-67
2022/02/22 01:08:30;;;;;;;10.73;2.60;;;12.40;99.90;;;;;;5068889;28;20533;-67
2022/02/22 01:10:56;;;;;;;8.53;2.30;;;12.50;99.90;;;;;;5070828;28;20279;-67
2022/02/22 01:13:23;;;;;;;12.57;2.50;;;12.40;99.90;;;;;;5081293;28;20187;-66
2022/02/22 01:15:50;;;;;;;11.30;2.60;;;12.40;99.90;;;;;;5098089;28;20262;-66
2022/02/22 01:18:17;;;;;;;18.40;2.50;;;12.40;99.90;;;;;;5090407;28;20623;-68
2022/02/22 01:20:43;;;;;;;9.93;2.13;;;12.50;99.90;;;;;;5081902;28;20190;-66
2022/02/22 01:23:09;;;;;;;10.47;2.00;;;12.40;99.90;;;;;;5067181;28;20225;-67
2022/02/22 01:25:36;;;;;;;14.50;2.60;;;12.40;99.90;;;;;;5077450;28;20203;-67
2022/02/22 01:28:02;;;;;;;11.13;2.93;;;12.40;99.90;;;;;;5091443;28;20773;-68
2022/02/22 01:30:28;;;;;;;13.63;2.30;;;12.40;99.90;;;;;;5066493;28;20966;-68
2022/02/22 01:32:54;;;;;;;12.27;2.43;;;12.50;99.90;;;;;;5078892;28;20221;-67
2022/02/22 01:35:21;;;;;;;10.47;2.30;;;12.40;99.90;;;;;;5086979;28;20197;-67
2022/02/22 01:37:47;;;;;;;13.03;2.57;;;12.40;99.90;;;;;;5075922;28;20273;-68
2022/02/22 01:40:14;;;;;;;9.23;2.30;;;12.40;99.90;;;;;;5078856;28;20197;-67
2022/02/22 01:42:46;;;;;;;10.23;2.43;;;12.50;99.90;;;;;;5067224;28;20671;-67
2022/02/22 01:45:12;;;;;;;16.17;2.77;;;12.40;99.90;;;;;;5063914;28;20252;-67
2022/02/22 01:47:39;;;;;;;10.23;2.13;;;12.40;99.90;;;;;;5085181;28;20207;-66
2022/02/22 01:50:08;;;;;;;10.53;2.60;;;12.50;99.90;;;;;;5078841;28;20281;-66
2022/02/22 01:52:34;;;;;;;16.83;2.53;;;12.50;99.90;;;;;;5073858;28;20234;-67
2022/02/22 01:55:00;;;;;;;10.13;2.60;;;12.50;99.90;;;;;;5075759;28;20674;-66
2022/02/22 01:57:27;;;;;;;10.50;2.70;;;12.40;99.90;;;;;;5082742;28;20194;-67
2022/02/22 01:59:54;;;;;;;10.87;2.53;;;12.40;99.90;;;;;;5069111;28;20646;-69
2022/02/22 02:02:20;;;;;;;14.70;2.50;;;12.40;99.90;;;;;;5067434;28;20194;-66
2022/02/22 02:04:46;;;;;;;8.83;2.47;;;12.40;99.90;;;;;;5067743;28;20194;-66
2022/02/22 02:07:13;;;;;;;15.40;2.87;;;12.40;99.90;;;;;;5050544;28;20742;-67
2022/02/22 02:09:39;;;;;;;8.20;2.20;;;12.40;99.90;;;;;;5071606;28;20555;-66
2022/02/22 02:12:06;;;;;;;7.53;2.30;;;12.30;99.90;;;;;;5070228;28;20703;-69
2022/02/22 02:14:32;;;;;;;11.13;2.60;;;12.30;99.90;;;;;;5067806;28;20191;-67
2022/02/22 02:16:59;;;;;;;9.33;2.33;;;12.30;99.90;;;;;;5080558;28;20271;-68
2022/02/22 02:19:25;;;;;;;7.17;2.40;;;12.30;99.90;;;;;;5075715;28;20193;-68
2022/02/22 02:21:57;;;;;;;8.60;2.13;;;12.30;99.90;;;;;;5083318;28;20272;-67
2022/02/22 02:24:26;;;;;;;8.07;2.20;;;12.30;99.90;;;;;;5062612;28;20281;-67
2022/02/22 02:26:55;;;;;;;9.83;2.30;;;12.20;99.90;;;;;;5080554;28;20189;-68
2022/02/22 02:29:25;;;;;;;10.53;2.30;;;12.20;99.90;;;;;;5083210;28;20197;-66
2022/02/22 02:31:52;;;;;;;9.77;2.30;;;12.20;99.90;;;;;;5096951;28;20314;-67
2022/02/22 02:34:24;;;;;;;9.03;2.70;;;12.10;99.90;;;;;;5076837;28;20209;-68
2022/02/22 02:36:51;;;;;;;12.90;2.60;;;12.20;99.90;;;;;;5081684;28;20597;-67
2022/02/22 02:39:17;;;;;;;14.33;2.73;;;12.10;99.90;;;;;;5066408;28;20242;-67
2022/02/22 02:41:46;;;;;;;12.87;3.13;;;12.10;99.90;;;;;;5068021;28;20199;-67
2022/02/22 02:44:18;;;;;;;13.33;2.50;;;12.10;99.90;;;;;;5080077;28;20286;-67
2022/02/22 02:46:45;;;;;;;10.30;2.47;;;12.10;99.90;;;;;;5079838;28;20293;-67
2022/02/22 02:49:14;;;;;;;10.00;2.30;;;12.10;99.90;;;;;;5079905;28;20614;-67
2022/02/22 02:51:42;;;;;;;10.17;2.90;;;12.10;99.90;;;;;;5086484;28;20234;-67
2022/02/22 02:54:09;;;;;;;8.67;2.50;;;12.10;99.90;;;;;;5073354;28;20196;-68
2022/02/22 02:56:36;;;;;;;16.40;3.00;;;12.10;99.90;;;;;;5071437;28;20259;-67
2022/02/22 02:59:06;;;;;;;12.77;3.13;;;12.10;99.90;;;;;;5072153;28;20187;-66
2022/02/22 03:01:36;;;;;;;15.63;3.10;;;12.00;99.90;;;;;;5069983;28;20216;-66
2022/02/22 03:04:04;;;;;;;13.13;2.67;;;12.10;99.90;;;;;;5071199;28;20640;-66
2022/02/22 03:06:30;;;;;;;14.63;3.23;;;12.10;99.90;;;;;;5088862;28;20481;-66
2022/02/22 03:08:57;;;;;;;16.87;3.00;;;12.10;99.90;;;;;;5080272;28;20210;-67
2022/02/22 03:11:23;;;;;;;15.00;3.10;;;12.10;99.90;;;;;;5068074;28;20214;-67
2022/02/22 03:13:50;;;;;;;14.63;3.03;;;12.10;99.90;;;;;;5076867;28;20590;-68
2022/02/22 03:16:16;;;;;;;13.83;3.30;;;12.10;99.90;;;;;;5083749;28;20635;-68
2022/02/22 03:18:43;;;;;;;14.73;3.07;;;12.20;99.90;;;;;;5089312;28;20186;-67
2022/02/22 03:21:09;;;;;;;12.83;3.03;;;12.20;99.90;;;;;;5088184;28;20197;-67
2022/02/22 03:23:36;;;;;;;21.70;3.57;;;12.20;99.90;;;;;;5086927;28;20194;-67
2022/02/22 03:26:03;;;;;;;15.30;2.90;;;12.30;99.90;;;;;;5089228;28;20217;-66
2022/02/22 03:28:31;;;;;;;12.53;3.40;;;12.20;99.90;;;;;;5071867;28;20191;-68
2022/02/22 03:31:00;;;;;;;15.90;3.23;;;12.20;99.90;;;;;;5088425;28;20207;-66
2022/02/22 03:33:27;;;;;;;19.07;3.27;;;12.20;99.90;;;;;;5074520;28;20480;-67
2022/02/22 03:35:53;;;;;;;14.23;3.03;;;12.20;99.90;;;;;;5072018;28;20178;-67
2022/02/22 03:38:19;;;;;;;12.00;2.73;;;12.10;99.90;;;;;;5080563;28;20755;-68
2022/02/22 03:40:45;;;;;;;8.73;2.60;;;12.10;99.90;;;;;;5086971;28;20186;-68
2022/02/22 03:43:12;;;;;;;16.37;4.10;;;12.10;99.90;;;;;;5079118;28;20220;-68
2022/02/22 03:45:38;;;;;;;9.53;2.70;;;12.10;99.90;;;;;;5082086;28;20725;-68
2022/02/22 03:48:05;;;;;;;14.33;3.20;;;12.10;99.90;;;;;;5083234;28;20198;-67
2022/02/22 03:50:31;;;;;;;9.77;3.17;;;12.10;99.90;;;;;;5063296;28;20222;-67
2022/02/22 03:52:57;;;;;;;10.30;2.90;;;12.10;99.90;;;;;;5075795;28;20258;-67
2022/02/22 03:55:24;;;;;;;10.83;3.10;;;12.10;99.90;;;;;;5098484;28;20187;-67
2022/02/22 03:57:52;;;;;;;9.57;2.67;;;12.00;99.90;;;;;;5084566;28;20202;-67
2022/02/22 04:00:25;;;;;;;14.57;4.17;;;12.00;99.90;;;;;;5082863;28;20194;-67
2022/02/22 04:02:52;;;;;;;18.73;3.50;;;12.00;99.90;;;;;;5074292;28;20212;-66
2022/02/22 04:05:20;;;;;;;9.70;3.10;;;12.00;99.90;;;;;;5085342;28;20200;-68
2022/02/22 04:07:48;;;;;;;17.00;3.00;;;11.90;99.90;;;;;;5070785;28;20198;-67
2022/02/22 04:10:14;;;;;;;16.17;3.43;;;12.00;99.90;;;;;;5094846;28;20587;-66
2022/02/22 04:12:41;;;;;;;11.73;3.30;;;11.90;99.90;;;;;;5075674;28;20709;-66
2022/02/22 04:15:11;;;;;;;12.03;3.70;;;11.90;99.90;;;;;;5071561;28;20222;-66
2022/02/22 04:17:38;;;;;;;14.83;3.03;;;11.90;99.90;;;;;;5088082;28;20213;-67
2022/02/22 04:20:06;;;;;;;11.00;2.97;;;11.90;99.90;;;;;;5071427;28;20202;-69
2022/02/22 04:22:32;;;;;;;12.37;3.70;;;11.90;99.90;;;;;;5081287;28;20243;-67
2022/02/22 04:24:59;;;;;;;13.00;3.00;;;11.90;99.90;;;;;;5084689;28;20657;-67
2022/02/22 04:27:25;;;;;;;14.77;4.57;;;11.90;99.90;;;;;;5085280;28;20194;-67
2022/02/22 04:37:15;;;;;;;18.07;3.63;;;11.90;99.90;;;;;;5072838;28;20191;-69
2022/02/22 04:39:44;;;;;;;16.93;3.40;;;12.00;99.90;;;;;;5071123;28;20195;-68
2022/02/22 04:42:10;;;;;;;12.13;3.07;;;12.00;99.90;;;;;;5086000;28;20683;-67
2022/02/22 04:44:38;;;;;;;10.83;3.30;;;11.90;99.90;;;;;;5081799;28;20209;-66
2022/02/22 04:47:07;;;;;;;15.37;3.77;;;12.00;99.90;;;;;;5071995;28;20651;-66
2022/02/22 04:49:34;;;;;;;9.03;3.33;;;11.90;99.90;;;;;;5066184;28;20187;-67
2022/02/22 04:52:02;;;;;;;11.90;3.93;;;11.90;99.90;;;;;;5071714;28;20271;-66
2022/02/22 04:54:29;;;;;;;15.00;3.57;;;11.90;99.90;;;;;;5083644;28;20174;-68
2022/02/22 04:56:55;;;;;;;13.97;3.80;;;11.90;99.90;;;;;;5074613;28;21177;-68
2022/02/22 04:59:24;;;;;;;10.30;3.40;;;11.90;99.90;;;;;;5080760;28;20531;-67
2022/02/22 05:01:52;;;;;;;12.60;3.80;;;12.00;99.90;;;;;;5078874;28;20186;-66
2022/02/22 05:04:18;;;;;;;15.60;4.10;;;12.00;99.90;;;;;;5083524;28;20198;-67
2022/02/22 05:06:44;;;;;;;18.10;3.77;;;12.00;99.90;;;;;;5078872;28;20194;-66
2022/02/22 05:09:11;;;;;;;16.00;3.67;;;12.00;99.90;;;;;;5075373;28;20278;-67
2022/02/22 05:11:37;;;;;;;22.37;4.13;;;12.00;99.90;;;;;;5069623;28;20222;-67
2022/02/22 05:14:04;;;;;;;12.97;3.50;;;12.00;99.90;;;;;;5082457;28;20204;-67
2022/02/22 05:16:32;;;;;;;12.97;3.67;;;12.00;99.90;;;;;;5079751;28;20190;-68
2022/02/22 05:18:59;;;;;;;11.80;3.27;;;12.10;99.90;;;;;;5091671;28;20659;-69
2022/02/22 05:21:26;;;;;;;10.47;3.10;;;12.10;99.90;;;;;;5083418;28;20573;-66
2022/02/22 05:23:52;;;;;;;10.77;3.57;;;12.10;99.90;;;;;;5066159;28;20183;-69
2022/02/22 05:26:18;;;;;;;14.53;3.77;;;12.20;99.90;;;;;;5072752;28;20182;-67
2022/02/22 05:28:46;;;;;;;8.00;3.40;;;12.20;99.90;;;;;;5068174;28;20274;-67
2022/02/22 05:31:16;;;;;;;12.23;3.50;;;12.20;99.90;;;;;;5075235;28;20256;-67
2022/02/22 05:33:43;;;;;;;15.30;3.57;;;12.30;99.90;;;;;;5065200;28;20190;-66
2022/02/22 05:36:10;;;;;;;12.63;3.10;;;12.30;99.90;;;;;;5072653;28;20189;-66
2022/02/22 05:38:37;;;;;;;15.00;3.17;;;12.30;99.90;;;;;;5072654;28;20523;-67
2022/02/22 05:41:03;;;;;;;13.17;3.20;;;12.30;99.90;;;;;;5073548;28;20194;-66
2022/02/22 05:43:30;;;;;;;11.67;3.17;;;12.40;99.90;;;;;;5084949;28;20197;-67
2022/02/22 05:45:56;;;;;;;14.40;3.80;;;12.40;99.90;;;;;;5064496;28;20187;-67
2022/02/22 05:48:23;;;;;;;11.53;2.77;;;12.50;99.90;;;;;;5074284;28;20635;-66
2022/02/22 05:50:49;;;;;;;7.87;3.33;;;12.50;99.90;;;;;;5068171;28;20264;-66
2022/02/22 05:53:15;;;;;;;18.60;3.37;;;12.50;99.90;;;;;;5068304;28;20707;-68
2022/02/22 05:55:41;;;;;;;10.37;2.70;;;12.50;99.90;;;;;;5065707;28;20218;-68
2022/02/22 05:58:08;;;;;;;11.77;3.13;;;12.60;99.90;;;;;;5069895;28;20181;-67
2022/02/22 06:00:34;;;;;;;14.23;3.03;;;12.60;99.90;;;;;;5068590;28;20236;-67
2022/02/22 06:03:00;;;;;;;13.67;3.27;;;12.70;99.90;;;;;;5064340;28;20182;-67
2022/02/22 06:05:27;;;;;;;13.27;3.40;;;12.70;99.90;;;;;;5064153;28;20229;-67
2022/02/22 06:07:55;;;;;;;10.23;3.10;;;12.80;99.90;;;;;;5066495;28;20610;-67
2022/02/22 06:10:21;;;;;;;9.87;3.10;;;12.80;99.90;;;;;;5065309;28;20298;-66
2022/02/22 06:12:49;;;;;;;7.37;2.80;;;12.80;99.90;;;;;;5083080;28;20255;-66
2022/02/22 06:15:15;;;;;;;10.93;3.47;;;12.80;99.90;;;;;;5084479;28;20780;-66
2022/02/22 06:17:44;;;;;;;11.20;2.97;;;12.90;99.90;;;;;;5086117;28;20178;-66
2022/02/22 06:20:13;;;;;;;12.00;4.17;;;12.90;99.90;;;;;;5086026;28;20706;-67
2022/02/22 06:22:40;;;;;;;7.83;3.40;;;12.90;99.90;;;;;;5082741;28;20529;-67
2022/02/22 06:25:10;;;;;;;12.17;3.73;;;13.00;99.90;;;;;;5077342;28;20554;-68
2022/02/22 06:28:05;;;;;;;18.67;4.53;;;13.00;99.90;;;;;;5085060;28;20178;-66
2022/02/22 06:30:31;;;;;;;9.30;3.33;;;13.00;99.90;;;;;;5057962;28;20667;-66
2022/02/22 06:32:58;;;;;;;12.80;3.73;;;13.00;99.90;;;;;;5063748;28;20218;-67
2022/02/22 06:35:24;;;;;;;13.63;3.50;;;13.10;99.90;;;;;;5082601;28;20194;-67
2022/02/22 06:37:50;;;;;;;12.20;3.47;;;13.10;99.90;;;;;;5070157;28;20183;-67
2022/02/22 06:40:17;;;;;;;13.77;3.57;;;13.20;99.90;;;;;;5061606;28;20198;-68
2022/02/22 06:42:44;;;;;;;14.67;3.73;;;13.20;99.90;;;;;;5072064;28;20197;-67
2022/02/22 06:45:11;;;;;;;13.10;3.67;;;13.20;99.90;;;;;;5071582;28;20559;-67
2022/02/22 06:47:40;;;;;;;16.60;3.53;;;13.20;99.90;;;;;;5078554;28;20191;-67
2022/02/22 06:50:10;;;;;;;10.17;3.03;;;13.20;99.90;;;;;;5067705;28;20611;-68
2022/02/22 06:52:37;;;;;;;13.60;3.50;;;13.20;99.90;;;;;;5059831;28;20194;-67
2022/02/22 06:55:05;;;;;;;14.07;3.20;;;13.20;99.90;;;;;;5080579;28;20377;-67
2022/02/22 06:57:33;;;;;;;11.30;2.87;;;13.20;99.90;;;;;;5063677;28;20459;-67
2022/02/22 06:59:59;;;;;;;13.87;3.53;;;13.20;99.90;;;;;;5075593;28;20182;-68
2022/02/22 07:02:26;;;;;;;15.97;3.60;;;13.20;99.90;;;;;;5076067;28;20332;-68
2022/02/22 07:04:52;;;;;;;13.47;3.53;;;13.20;99.90;;;;;;5081774;28;20197;-67
2022/02/22 07:07:18;;;;;;;7.83;2.90;;;13.30;99.90;;;;;;5067872;28;20474;-67
2022/02/22 07:09:45;;;;;;;12.57;3.03;;;13.40;99.90;;;;;;5064475;28;20274;-68
2022/02/22 07:12:11;;;;;;;10.47;2.93;;;13.50;99.90;;;;;;5081598;28;20211;-66
2022/02/22 07:14:37;;;;;;;13.50;4.00;;;13.60;99.90;;;;;;5071128;28;20278;-66
2022/02/22 07:17:07;;;;;;;11.47;3.13;;;13.70;99.90;;;;;;5082862;28;20600;-67
2022/02/22 07:19:33;;;;;;;9.40;3.00;;;13.70;99.90;;;;;;5078089;28;20178;-66
2022/02/22 07:21:59;;;;;;;15.20;3.40;;;13.70;99.90;;;;;;5084539;28;20679;-67
2022/02/22 07:24:26;;;;;;;11.13;3.60;;;13.70;99.90;;;;;;5064601;28;20186;-66
2022/02/22 07:26:52;;;;;;;11.57;3.40;;;13.70;99.90;;;;;;5083273;28;20297;-66
2022/02/22 07:29:18;;;;;;;12.33;3.17;;;13.70;99.90;;;;;;5087410;28;20191;-66
2022/02/22 07:31:44;;;;;;;14.47;3.23;;;13.70;99.90;;;;;;5065399;28;20695;-67
2022/02/22 07:34:11;;;;;;;9.43;2.90;;;13.80;99.90;;;;;;5065276;28;20236;-67
2022/02/22 07:36:39;;;;;;;13.23;3.00;;;13.90;99.90;;;;;;5064533;28;20198;-67
2022/02/22 07:39:05;;;;;;;10.80;3.80;;;14.10;99.90;;;;;;5065097;28;20201;-69
2022/02/22 07:41:32;;;;;;;13.50;3.30;;;14.20;99.90;;;;;;5086584;28;20239;-66
2022/02/22 07:43:58;;;;;;;6.40;2.90;;;14.20;99.90;;;;;;5094434;28;20647;-67
2022/02/22 07:46:24;;;;;;;9.70;2.63;;;14.30;99.90;;;;;;5077372;28;20208;-66
2022/02/22 07:48:51;;;;;;;7.40;2.80;;;14.30;99.90;;;;;;5079146;28;20960;-66
2022/02/22 07:51:18;;;;;;;13.03;2.90;;;14.30;99.90;;;;;;5073818;28;20206;-67
2022/02/22 07:53:47;;;;;;;8.63;2.33;;;14.20;99.90;;;;;;5073334;28;20194;-66
2022/02/22 07:56:16;;;;;;;10.93;2.97;;;14.20;99.90;;;;;;5084158;28;20191;-67
2022/02/22 07:58:43;;;;;;;9.50;2.80;;;14.20;99.90;;;;;;5079538;28;20261;-66
2022/02/22 08:01:11;;;;;;;11.50;2.63;;;14.20;99.90;;;;;;5076119;28;20190;-66
2022/02/22 08:03:39;;;;;;;6.17;2.70;;;14.20;99.90;;;;;;5076825;28;20703;-66
2022/02/22 08:06:05;;;;;;;11.03;3.07;;;14.20;99.90;;;;;;5075533;28;20196;-67
2022/02/22 08:08:32;;;;;;;10.13;2.73;;;14.30;99.90;;;;;;5076337;28;20713;-67
2022/02/22 08:10:58;;;;;;;12.83;2.90;;;14.30;99.90;;;;;;5086939;28;20629;-67
2022/02/22 08:13:24;;;;;;;12.90;3.07;;;14.40;99.90;;;;;;5070951;28;20205;-66
2022/02/22 08:15:50;;;;;;;12.47;2.23;;;14.40;99.90;;;;;;5062086;28;20190;-66
2022/02/22 08:18:17;;;;;;;10.33;2.40;;;14.30;99.90;;;;;;5074277;28;20190;-67
2022/02/22 08:20:43;;;;;;;11.93;2.73;;;14.40;99.90;;;;;;5072801;28;20216;-68
2022/02/22 08:23:09;;;;;;;13.40;2.57;;;14.50;99.90;;;;;;5071501;28;20206;-68
2022/02/22 08:25:36;;;;;;;7.53;2.30;;;14.60;99.90;;;;;;5075452;28;20488;-66
2022/02/22 08:28:13;;;;;;;8.30;2.20;;;14.80;99.90;;;;;;5076456;28;20193;-66
2022/02/22 08:30:40;;;;;;;11.40;2.37;;;15.00;99.90;;;;;;5073299;28;20249;-67
2022/02/22 08:33:07;;;;;;;14.13;3.13;;;15.10;99.90;;;;;;5079511;28;20210;-66
2022/02/22 08:35:35;;;;;;;9.33;2.27;;;15.20;99.90;;;;;;5077249;28;20200;-67
2022/02/22 08:38:02;;;;;;;6.83;2.17;;;15.30;99.90;;;;;;5075656;28;20237;-66
2022/02/22 08:40:31;;;;;;;8.43;2.30;;;15.40;99.90;;;;;;5073924;28;20190;-66
2022/02/22 08:42:58;;;;;;;10.33;2.70;;;15.40;99.90;;;;;;5064035;28;20737;-67
2022/02/22 08:45:26;;;;;;;8.57;2.40;;;15.40;99.90;;;;;;5078355;28;20212;-66
2022/02/22 08:47:53;;;;;;;8.80;2.13;;;15.30;99.90;;;;;;5063702;28;20269;-66
2022/02/22 08:50:21;;;;;;;6.70;2.40;;;15.20;99.90;;;;;;5065108;28;20297;-68
2022/02/22 08:52:47;;;;;;;8.37;2.37;;;15.20;99.90;;;;;;5077366;28;20246;-66
2022/02/22 08:55:14;;;;;;;10.20;2.60;;;15.10;99.90;;;;;;5072401;28;20532;-66
2022/02/22 08:57:40;;;;;;;6.83;2.37;;;15.10;99.90;;;;;;5072808;28;20919;-67
2022/02/22 09:00:10;;;;;;;9.97;2.30;;;15.10;99.90;;;;;;5077727;28;20271;-67
2022/02/22 09:02:39;;;;;;;8.60;2.30;;;15.10;99.90;;;;;;5074097;28;20190;-67
2022/02/22 09:05:06;;;;;;;9.93;2.60;;;15.10;99.90;;;;;;5071102;28;20190;-66
2022/02/22 09:07:33;;;;;;;14.60;3.20;;;15.20;99.90;;;;;;5082886;28;20190;-68
2022/02/22 09:09:59;;;;;;;10.43;2.43;;;15.30;99.90;;;;;;5080064;28;20703;-66
2022/02/22 09:12:27;;;;;;;10.13;2.63;;;15.40;99.90;;;;;;5060022;28;20283;-66
2022/02/22 09:14:55;;;;;;;10.07;2.20;;;15.50;99.90;;;;;;5077680;28;20178;-66
2022/02/22 09:17:22;;;;;;;7.83;2.43;;;15.60;99.90;;;;;;5077129;28;20187;-67
2022/02/22 09:19:49;;;;;;;8.77;2.37;;;15.70;99.90;;;;;;5081205;28;20209;-67
2022/02/22 09:22:15;;;;;;;7.17;2.30;;;15.70;99.90;;;;;;5081372;28;20201;-67
2022/02/22 09:24:43;;;;;;;5.90;2.03;;;15.80;99.90;;;;;;5097454;28;20249;-67
2022/02/22 09:27:09;;;;;;;8.73;3.30;;;15.90;99.90;;;;;;5075366;28;20194;-67
2022/02/22 09:29:36;;;;;;;10.80;3.33;;;16.00;99.90;;;;;;5075675;28;20670;-68
2022/02/22 09:32:03;;;;;;;12.77;3.30;;;16.00;99.90;;;;;;5096789;28;20256;-68
2022/02/22 09:34:30;;;;;;;8.07;2.40;;;16.10;99.90;;;;;;5094180;28;20260;-67
2022/02/22 09:37:02;;;;;;;6.10;2.03;;;16.20;99.90;;;;;;5080283;28;20592;-67
2022/02/22 09:39:29;;;;;;;8.37;2.33;;;16.20;99.90;;;;;;5080961;28;20272;-67
2022/02/22 09:41:55;;;;;;;8.77;2.10;;;16.30;99.90;;;;;;5075085;28;20197;-68
2022/02/22 09:44:22;;;;;;;7.63;2.13;;;16.30;99.90;;;;;;5082067;28;20186;-68
2022/02/22 09:46:50;;;;;;;8.00;2.53;;;16.30;99.90;;;;;;5083780;28;20702;-67
2022/02/22 09:49:20;;;;;;;10.30;2.60;;;16.40;99.90;;;;;;5083167;28;20198;-68
2022/02/22 09:51:48;;;;;;;9.40;4.00;;;16.50;99.90;;;;;;5066365;28;20735;-68
2022/02/22 09:54:14;;;;;;;9.47;3.67;;;16.50;99.90;;;;;;5067906;28;20219;-68
2022/02/22 09:56:45;;;;;;;8.57;4.10;;;16.60;99.90;;;;;;5078754;28;20203;-68
2022/02/22 09:59:12;;;;;;;11.17;3.23;;;16.70;99.90;;;;;;5080350;28;20737;-68
2022/02/22 10:01:50;;;;;;;14.10;2.90;;;16.70;99.90;;;;;;5076072;28;20269;-68
2022/02/22 10:04:23;;;;;;;8.47;2.57;;;16.60;99.90;;;;;;5082497;28;20193;-68
2022/02/22 10:06:51;;;;;;;9.23;2.60;;;16.80;99.90;;;;;;5081525;28;20178;-67
2022/02/22 10:09:21;;;;;;;13.33;5.30;;;16.90;99.90;;;;;;5085309;28;20183;-68
2022/02/22 10:11:52;;;;;;;11.77;4.13;;;17.10;99.90;;;;;;5078666;28;20955;-68
2022/02/22 10:14:30;;;;;;;9.37;2.53;;;17.30;99.90;;;;;;5070924;28;20277;-68
2022/02/22 10:16:58;;;;;;;6.67;2.73;;;17.50;99.90;;;;;;5072708;28;20213;-68
2022/02/22 10:19:30;;;;;;;14.57;5.70;;;17.40;99.90;;;;;;5081203;28;20189;-67
2022/02/22 10:21:57;;;;;;;16.13;5.90;;;17.50;99.90;;;;;;5079551;28;20197;-68
2022/02/22 10:24:30;;;;;;;9.97;4.23;;;17.70;99.90;;;;;;5079316;28;20193;-67
2022/02/22 10:27:06;;;;;;;18.67;7.20;;;17.60;99.90;;;;;;5058420;28;20564;-67
2022/02/22 10:29:36;;;;;;;23.00;9.97;;;17.60;99.90;;;;;;5070998;28;20264;-67
2022/02/22 10:32:16;;;;;;;13.67;5.47;;;17.60;99.90;;;;;;5079753;28;20225;-67
2022/02/22 10:34:43;;;;;;;7.77;2.67;;;17.30;99.90;;;;;;5053277;28;20186;-69
2022/02/22 10:37:10;;;;;;;13.43;4.43;;;17.20;99.90;;;;;;5051919;28;20194;-67
2022/02/22 10:39:37;;;;;;;6.37;2.40;;;17.40;99.90;;;;;;5063797;28;20838;-68
2022/02/22 10:42:04;;;;;;;17.40;3.10;;;18.00;99.90;;;;;;5077308;28;20206;-68
2022/02/22 10:44:36;;;;;;;9.90;2.93;;;19.40;99.90;;;;;;5093548;27;20591;-68
2022/02/22 10:47:16;;;;;;;10.20;3.67;;;20.90;99.90;;;;;;5075159;28;20267;-69
2022/02/22 10:49:42;;;;;;;9.30;3.00;;;21.60;99.90;;;;;;5076082;28;20195;-67
2022/02/22 10:52:11;;;;;;;9.13;2.40;;;21.50;99.90;;;;;;5072702;28;20253;-69
2022/02/22 10:54:37;;;;;;;17.17;3.63;;;20.10;99.90;;;;;;5076002;28;20183;-68
2022/02/22 10:57:04;;;;;;;10.10;3.00;;;19.20;99.90;;;;;;5070715;28;20205;-68
2022/02/22 10:59:31;;;;;;;8.80;2.10;;;19.10;99.90;;;;;;5080142;28;20181;-67
2022/02/22 11:01:59;;;;;;;9.03;2.33;;;19.30;99.90;;;;;;5060254;28;20190;-68
2022/02/22 11:04:26;;;;;;;9.37;1.87;;;19.50;99.90;;;;;;5073397;28;20266;-67
2022/02/22 11:06:52;;;;;;;13.57;2.60;;;19.50;99.90;;;;;;5078751;28;20833;-67
2022/02/22 11:09:22;;;;;;;8.77;2.10;;;19.00;99.90;;;;;;5086063;28;20477;-69
2022/02/22 11:11:58;;;;;;;9.23;2.40;;;18.60;99.90;;;;;;5085870;28;20212;-68
2022/02/22 11:14:36;;;;;;;6.53;2.13;;;18.50;99.90;;;;;;5078130;28;20288;-68
2022/02/22 11:17:22;;;;;;;3.80;1.60;;;18.40;99.90;;;;;;5072683;28;20182;-68
2022/02/22 11:19:50;;;;;;;11.83;2.13;;;18.20;99.90;;;;;;5078840;28;20182;-67
2022/02/22 11:22:24;;;;;;;7.90;2.13;;;18.10;99.90;;;;;;5069956;28;20190;-69
2022/02/22 11:24:57;;;;;;;6.87;1.80;;;17.90;99.90;;;;;;5084342;28;20295;-68
2022/02/22 11:27:25;;;;;;;7.73;1.97;;;17.90;99.90;;;;;;5087526;28;20265;-67
2022/02/22 11:30:07;;;;;;;7.47;2.00;;;17.80;99.90;;;;;;5080009;28;20195;-68
2022/02/22 11:32:40;;;;;;;6.50;1.73;;;17.80;99.90;;;;;;5085074;28;20642;-67
2022/02/22 11:35:19;;;;;;;9.00;2.20;;;17.90;99.90;;;;;;5079460;28;20288;-67
2022/02/22 11:37:46;;;;;;;5.80;1.80;;;17.90;99.90;;;;;;5082906;28;20567;-68
2022/02/22 11:40:30;;;;;;;11.60;2.17;;;17.90;99.90;;;;;;5072261;28;20182;-68
2022/02/22 11:43:16;;;;;;;7.37;1.90;;;18.00;99.90;;;;;;5076813;28;20197;-68
2022/02/22 11:45:46;;;;;;;11.67;2.40;;;18.00;99.90;;;;;;5077170;28;20182;-68
2022/02/22 11:48:22;;;;;;;6.13;2.20;;;18.10;99.90;;;;;;5086043;28;20197;-69
2022/02/22 11:50:53;;;;;;;11.17;2.23;;;18.10;99.90;;;;;;5072603;28;20875;-67
2022/02/22 11:53:29;;;;;;;6.60;1.80;;;18.10;99.90;;;;;;5084741;28;20182;-67
2022/02/22 11:55:58;;;;;;;9.53;1.97;;;18.00;99.90;;;;;;5087532;28;20194;-68
2022/02/22 11:58:30;;;;;;;10.00;2.10;;;18.00;99.90;;;;;;5079857;28;20537;-68
2022/02/22 12:01:04;;;;;;;4.20;2.10;;;17.90;99.90;;;;;;5086008;28;20228;-69
2022/02/22 12:03:45;;;;;;;6.57;2.23;;;17.90;99.90;;;;;;5084255;28;20216;-68
2022/02/22 12:06:12;;;;;;;9.60;2.40;;;18.00;99.90;;;;;;5079231;28;20186;-67
2022/02/22 12:08:42;;;;;;;8.73;2.70;;;17.90;99.90;;;;;;5073715;28;20186;-67
2022/02/22 12:11:17;;;;;;;6.87;2.43;;;18.00;99.90;;;;;;5074781;28;20202;-67
2022/02/22 12:13:56;;;;;;;6.37;2.43;;;18.00;99.90;;;;;;5069698;28;20171;-67
2022/02/22 12:16:26;;;;;;;7.10;2.27;;;18.00;99.90;;;;;;5080978;28;20178;-68
2022/02/22 12:18:57;;;;;;;10.03;2.63;;;18.00;99.90;;;;;;5081545;28;20277;-69
2022/02/22 12:21:26;;;;;;;8.33;2.00;;;17.90;99.90;;;;;;5078247;28;20305;-67
2022/02/22 12:23:54;;;;;;;3.70;1.70;;;17.90;99.90;;;;;;5081414;28;20193;-67
2022/02/22 12:26:24;;;;;;;8.53;1.93;;;17.90;99.90;;;;;;5071670;28;20207;-66
2022/02/22 12:28:58;;;;;;;5.93;1.87;;;17.90;99.90;;;;;;5076279;28;20187;-66
2022/02/22 12:31:34;;;;;;;4.73;1.70;;;17.90;99.90;;;;;;5075105;28;20377;-66
2022/02/22 12:34:16;;;;;;;5.37;1.77;;;17.90;99.90;;;;;;5075649;28;20182;-66
2022/02/22 12:36:45;;;;;;;11.63;2.77;;;18.00;99.90;;;;;;5081176;28;20182;-66
2022/02/22 12:39:17;;;;;;;4.57;1.50;;;18.00;99.90;;;;;;5084017;28;20193;-65
2022/02/22 12:41:51;;;;;;;5.20;1.70;;;18.00;99.90;;;;;;5078501;28;20218;-66
2022/02/22 12:44:23;;;;;;;4.23;1.63;;;17.90;99.90;;;;;;5080562;28;20287;-66
2022/02/22 12:46:54;;;;;;;7.93;2.30;;;17.90;99.90;;;;;;5052172;28;20182;-66
2022/02/22 12:49:23;;;;;;;7.03;2.00;;;17.80;99.90;;;;;;5085380;28;20178;-66
2022/02/22 12:52:03;;;;;;;7.27;2.03;;;17.80;99.90;;;;;;5071301;28;20293;-65
2022/02/22 12:54:32;;;;;;;6.63;2.03;;;17.80;99.90;;;;;;5085229;28;20696;-66
2022/02/22 12:57:02;;;;;;;6.60;1.43;;;17.70;99.90;;;;;;5086348;28;20210;-66
2022/02/22 12:59:36;;;;;;;6.00;2.30;;;17.60;99.90;;;;;;5076903;28;20657;-67
2022/02/22 13:02:07;;;;;;;7.70;3.83;;;17.60;99.90;;;;;;5068696;28;20206;-68
2022/02/22 13:04:35;;;;;;;7.80;2.70;;;17.60;99.90;;;;;;5087034;28;20223;-68
2022/02/22 13:07:18;;;;;;;5.00;1.93;;;17.50;99.90;;;;;;5081269;28;20622;-68